Lockwood, New York
Current Conditions -  °F | °C
As of 10:03 AM on Thursday 30 Oct 2014 (Local Time) from KELM Reporting Station
Overcast Overcast  
Wind Chill: 42°   Ceiling: 2800
Heat Index: 45°   Visibility: 10mi
Dew Point: 37°   Wind: 6mph
Humidity: 74%   Direction: 270°W
Pressure: 30.04"   Gusts: NA
Location:  42.09°N, 76.55°W
Report Text: KELM 301403Z 27005KT 10SM BKN028 OVC033 07/03 A3004 RMK AO2 T00720028
Loading
Personal Weather Stations






























Interactive Weather Map
Tropical Storm Tracking
New forecast layout! Learn more

10-Day Weather Forecast

Advertisements
Track Severe Weather on mobile